Time;durP1;ratioP1;P1;durP2;ratioP2;P2;SDS_P1;SDS_P2;PMS_P1;PMS_P2;Temp;Humidity;BMP_temperature;BMP_pressure;BME280_temperature;BME280_humidity;BME280_pressure;Samples;Min_cycle;Max_cycle;Signal;HPM_P1;HPM_P2
2021/03/19 00:00:07;;;;;;;7.53;6.18;;;9.90;62.60;;;;;;2064216;28;20034;-60
2021/03/19 00:01:28;;;;;;;7.50;6.10;;;9.90;62.60;;;;;;2054518;28;20042;-60
2021/03/19 00:02:51;;;;;;;7.53;6.32;;;9.90;62.50;;;;;;2059887;28;20261;-61
2021/03/19 00:04:12;;;;;;;6.47;5.78;;;9.90;62.50;;;;;;2072029;28;20127;-59
2021/03/19 00:05:33;;;;;;;7.07;6.00;;;9.90;62.40;;;;;;2064853;28;20084;-59
2021/03/19 00:06:54;;;;;;;8.50;6.13;;;9.90;62.40;;;;;;2068460;28;20481;-59
2021/03/19 00:08:14;;;;;;;8.18;5.78;;;9.90;62.30;;;;;;2062647;28;20481;-59
2021/03/19 00:09:35;;;;;;;6.40;5.80;;;9.90;62.30;;;;;;2063762;28;20038;-61
2021/03/19 00:10:57;;;;;;;6.53;5.93;;;9.80;62.20;;;;;;2059732;28;20063;-60
2021/03/19 00:12:17;;;;;;;8.05;6.97;;;9.90;62.30;;;;;;2068880;28;20432;-61
2021/03/19 00:13:39;;;;;;;7.35;6.60;;;9.90;62.30;;;;;;2059282;28;20038;-60
2021/03/19 00:15:00;;;;;;;8.80;7.07;;;9.90;62.30;;;;;;2065261;28;20033;-60
2021/03/19 00:16:21;;;;;;;7.85;6.15;;;9.80;62.30;;;;;;2070680;28;20041;-60
2021/03/19 00:17:42;;;;;;;7.38;6.57;;;9.90;62.30;;;;;;2068293;28;20566;-62
2021/03/19 00:19:04;;;;;;;7.90;6.57;;;9.80;62.10;;;;;;2066524;28;20030;-61
2021/03/19 00:20:25;;;;;;;7.38;6.10;;;9.80;62.00;;;;;;2063602;28;20038;-60
2021/03/19 00:21:46;;;;;;;9.55;6.88;;;9.80;62.10;;;;;;2064884;28;20026;-61
2021/03/19 00:23:08;;;;;;;9.05;7.10;;;9.80;62.00;;;;;;2067686;28;20030;-59
2021/03/19 00:24:29;;;;;;;9.07;6.50;;;9.80;62.00;;;;;;2066515;28;20049;-59
2021/03/19 00:25:50;;;;;;;11.00;7.20;;;9.80;62.00;;;;;;2063477;28;20450;-61
2021/03/19 00:27:11;;;;;;;9.00;7.15;;;9.80;62.00;;;;;;2068181;28;20096;-60
2021/03/19 00:28:32;;;;;;;9.10;7.25;;;9.80;62.00;;;;;;2068997;28;20375;-60
2021/03/19 00:29:53;;;;;;;9.85;7.38;;;9.80;62.00;;;;;;2070583;28;20347;-60
2021/03/19 00:31:14;;;;;;;9.10;7.00;;;9.80;61.90;;;;;;2069926;28;20030;-60
2021/03/19 00:32:35;;;;;;;11.32;7.40;;;9.80;62.00;;;;;;2068673;28;20033;-61
2021/03/19 00:33:56;;;;;;;8.43;7.15;;;9.80;62.60;;;;;;2064222;28;20365;-61
2021/03/19 00:35:18;;;;;;;9.73;7.32;;;9.80;61.80;;;;;;2063329;28;20093;-61
2021/03/19 00:36:38;;;;;;;8.32;6.28;;;9.80;61.60;;;;;;2062142;28;20037;-61
2021/03/19 00:38:00;;;;;;;10.02;7.57;;;9.80;61.50;;;;;;2067009;28;20026;-60
2021/03/19 00:39:20;;;;;;;9.90;7.10;;;9.80;61.40;;;;;;2069636;28;20045;-60
2021/03/19 00:40:42;;;;;;;9.50;7.88;;;9.80;61.40;;;;;;2062891;28;20073;-61
2021/03/19 00:42:04;;;;;;;7.82;6.93;;;9.80;61.30;;;;;;2065552;28;20034;-60
2021/03/19 00:43:25;;;;;;;11.32;7.65;;;9.80;61.30;;;;;;2063267;28;20129;-61
2021/03/19 00:44:46;;;;;;;9.65;7.60;;;9.80;61.40;;;;;;2056428;28;20034;-60
2021/03/19 00:46:07;;;;;;;7.63;6.82;;;9.80;61.50;;;;;;2065447;28;20038;-60
2021/03/19 00:47:28;;;;;;;8.45;7.15;;;9.80;61.40;;;;;;2056143;28;20458;-60
2021/03/19 00:48:49;;;;;;;10.00;7.88;;;9.80;61.10;;;;;;2060657;28;20038;-60
2021/03/19 00:50:14;;;;;;;8.07;7.28;;;9.80;60.90;;;;;;2062202;28;20027;-60
2021/03/19 00:51:34;;;;;;;10.57;9.10;;;9.80;60.90;;;;;;2063900;28;20751;-59
2021/03/19 00:52:56;;;;;;;9.85;8.38;;;9.80;60.60;;;;;;2066795;28;20026;-61
2021/03/19 00:54:17;;;;;;;9.82;8.20;;;9.80;60.40;;;;;;2062444;28;20034;-59
2021/03/19 00:55:38;;;;;;;11.35;8.70;;;9.80;60.40;;;;;;2061118;28;20444;-60
2021/03/19 00:56:59;;;;;;;10.95;9.15;;;9.70;60.40;;;;;;2064337;28;20395;-60
2021/03/19 00:58:20;;;;;;;11.75;9.65;;;9.80;60.50;;;;;;2070590;28;20061;-59
2021/03/19 00:59:41;;;;;;;10.38;9.27;;;9.70;60.40;;;;;;2063966;28;20030;-59
2021/03/19 01:01:02;;;;;;;12.82;10.18;;;9.70;60.20;;;;;;2064111;28;20077;-61
2021/03/19 01:02:23;;;;;;;13.95;11.05;;;9.70;60.10;;;;;;2071481;28;20107;-60
2021/03/19 01:03:44;;;;;;;12.00;10.48;;;9.70;60.20;;;;;;2067879;28;20197;-61
2021/03/19 01:05:18;;;;;;;12.77;11.18;;;9.70;60.20;;;;;;2071304;28;20030;-59
2021/03/19 01:06:39;;;;;;;12.48;11.05;;;9.70;59.90;;;;;;2068664;28;20066;-61
2021/03/19 01:08:02;;;;;;;12.10;10.82;;;9.70;59.90;;;;;;2065722;28;20106;-59
2021/03/19 01:09:23;;;;;;;13.15;11.75;;;9.70;59.90;;;;;;2062911;28;20065;-60
2021/03/19 01:10:52;;;;;;;12.82;10.75;;;9.70;60.00;;;;;;2064492;28;20146;-59
2021/03/19 01:12:14;;;;;;;13.05;11.63;;;9.60;60.00;;;;;;2068640;28;20022;-60
2021/03/19 01:13:35;;;;;;;13.40;10.75;;;9.70;59.90;;;;;;2063568;28;20121;-60
2021/03/19 01:14:56;;;;;;;12.90;10.65;;;9.70;59.90;;;;;;2067270;28;20062;-60
2021/03/19 01:16:17;;;;;;;14.43;11.27;;;9.60;59.90;;;;;;2065978;28;20042;-61
2021/03/19 01:17:38;;;;;;;14.35;11.02;;;9.60;59.80;;;;;;2064020;28;20129;-61
2021/03/19 01:18:59;;;;;;;13.13;11.73;;;9.60;59.80;;;;;;2067177;28;20030;-61
2021/03/19 01:20:23;;;;;;;13.43;11.27;;;9.60;59.80;;;;;;2067127;28;20034;-60
2021/03/19 01:21:44;;;;;;;12.82;11.27;;;9.60;59.80;;;;;;2054081;28;20077;-61
2021/03/19 01:23:05;;;;;;;12.68;10.95;;;9.60;59.80;;;;;;2064298;28;20034;-61
2021/03/19 01:24:26;;;;;;;13.95;11.05;;;9.60;59.90;;;;;;2061372;28;20042;-61
2021/03/19 01:25:47;;;;;;;13.40;11.40;;;9.60;59.70;;;;;;2066381;28;20038;-59
2021/03/19 01:27:08;;;;;;;13.00;11.57;;;9.60;59.70;;;;;;2067462;28;20396;-59
2021/03/19 01:28:29;;;;;;;14.57;11.70;;;9.50;59.60;;;;;;2068241;28;20046;-60
2021/03/19 01:29:50;;;;;;;13.07;11.50;;;9.50;59.50;;;;;;2062755;28;20065;-60
2021/03/19 01:31:12;;;;;;;12.95;11.65;;;9.50;59.50;;;;;;2069420;28;20038;-59
2021/03/19 01:32:33;;;;;;;12.50;11.18;;;9.50;59.60;;;;;;2061990;28;20081;-60
2021/03/19 01:33:54;;;;;;;13.05;11.65;;;9.50;59.50;;;;;;2069130;28;20186;-60
2021/03/19 01:35:16;;;;;;;13.13;11.55;;;9.50;59.50;;;;;;2072686;28;20171;-59
2021/03/19 01:36:37;;;;;;;13.38;11.43;;;9.50;59.60;;;;;;2060693;28;20066;-61
2021/03/19 01:37:58;;;;;;;13.68;11.48;;;9.50;59.70;;;;;;2065106;28;20706;-60
2021/03/19 01:39:19;;;;;;;12.30;11.00;;;9.50;59.60;;;;;;2063408;28;20145;-61
2021/03/19 01:40:43;;;;;;;12.63;11.18;;;9.40;59.60;;;;;;2062732;28;20743;-60
2021/03/19 01:42:05;;;;;;;13.95;11.55;;;9.50;59.60;;;;;;2070206;28;20076;-60
2021/03/19 01:43:38;;;;;;;15.05;11.90;;;9.40;59.40;;;;;;2064535;28;20033;-60
2021/03/19 01:45:08;;;;;;;13.02;11.02;;;9.40;59.30;;;;;;2063602;28;20069;-62
2021/03/19 01:47:06;;;;;;;12.57;11.27;;;9.40;59.20;;;;;;2057059;28;20473;-60
2021/03/19 01:49:05;;;;;;;13.32;10.75;;;9.40;59.20;;;;;;2059756;28;20409;-59
2021/03/19 01:51:04;;;;;;;11.55;10.35;;;9.40;59.10;;;;;;2062500;28;20481;-60
2021/03/19 01:53:04;;;;;;;11.48;10.27;;;9.40;59.10;;;;;;2062854;28;20034;-60
2021/03/19 01:55:02;;;;;;;12.23;10.90;;;9.40;59.10;;;;;;2063125;28;20084;-60
2021/03/19 01:57:08;;;;;;;11.75;10.55;;;9.30;59.10;;;;;;2065418;28;20060;-60
2021/03/19 01:59:06;;;;;;;11.63;10.35;;;9.30;59.20;;;;;;2055943;28;20039;-60
2021/03/19 02:01:05;;;;;;;11.52;10.20;;;9.30;59.20;;;;;;2065761;28;20023;-60
2021/03/19 02:03:03;;;;;;;12.45;10.57;;;9.30;59.00;;;;;;2058649;28;20041;-60
2021/03/19 02:05:01;;;;;;;12.70;10.27;;;9.30;59.00;;;;;;2072980;28;20073;-60
2021/03/19 02:07:00;;;;;;;12.38;9.93;;;9.30;59.00;;;;;;2065093;28;20027;-60
2021/03/19 02:08:58;;;;;;;11.27;9.60;;;9.20;59.00;;;;;;2065664;28;20063;-60
2021/03/19 02:10:56;;;;;;;11.25;9.55;;;9.20;59.00;;;;;;2064364;28;20452;-60
2021/03/19 02:12:55;;;;;;;11.27;9.82;;;9.20;58.90;;;;;;2064450;28;20030;-60
2021/03/19 02:14:53;;;;;;;10.63;9.52;;;9.20;58.90;;;;;;2063916;28;20030;-59
2021/03/19 02:16:52;;;;;;;11.52;9.52;;;9.20;58.90;;;;;;2063575;28;20470;-60
2021/03/19 02:18:50;;;;;;;11.85;10.45;;;9.20;58.90;;;;;;2070069;28;20477;-60
2021/03/19 02:20:49;;;;;;;10.65;9.50;;;9.20;58.90;;;;;;2064017;28;20061;-60
2021/03/19 02:22:47;;;;;;;11.52;9.43;;;9.20;58.80;;;;;;2064147;28;20022;-61
2021/03/19 02:24:46;;;;;;;11.45;10.25;;;9.20;58.60;;;;;;2066857;28;20072;-60
2021/03/19 02:26:44;;;;;;;12.10;10.15;;;9.20;58.60;;;;;;2062827;28;20030;-60
2021/03/19 02:28:43;;;;;;;11.23;10.00;;;9.10;58.50;;;;;;2068646;28;20129;-60
2021/03/19 02:30:41;;;;;;;12.20;10.20;;;9.10;58.30;;;;;;2065171;28;20034;-59
2021/03/19 02:32:05;;;;;;;11.65;10.43;;;9.00;58.20;;;;;;2066567;28;20041;-60
2021/03/19 02:33:26;;;;;;;13.25;10.07;;;9.00;58.20;;;;;;2072143;28;20366;-60
2021/03/19 02:34:58;;;;;;;16.00;12.70;;;9.00;58.20;;;;;;2063266;28;20112;-60
2021/03/19 02:36:22;;;;;;;14.60;12.32;;;9.00;58.20;;;;;;2072162;28;20431;-60
2021/03/19 02:37:42;;;;;;;13.98;12.13;;;8.90;58.20;;;;;;2060568;28;20484;-59
2021/03/19 02:39:03;;;;;;;15.43;12.32;;;8.90;58.20;;;;;;2064080;28;20026;-59
2021/03/19 02:40:25;;;;;;;16.00;12.80;;;8.90;58.40;;;;;;2056498;28;20126;-59
2021/03/19 02:41:45;;;;;;;15.70;13.50;;;8.90;58.50;;;;;;2060715;28;20085;-61
2021/03/19 02:43:06;;;;;;;18.30;14.65;;;8.80;58.50;;;;;;2064745;28;20038;-60
2021/03/19 02:44:29;;;;;;;17.73;14.02;;;8.80;58.50;;;;;;2057162;28;20458;-59
2021/03/19 02:45:50;;;;;;;15.75;13.50;;;8.80;58.50;;;;;;2061392;28;20492;-59
2021/03/19 02:47:11;;;;;;;17.77;14.38;;;8.80;58.60;;;;;;2055531;28;20409;-60
2021/03/19 02:48:32;;;;;;;18.15;14.82;;;8.70;58.50;;;;;;2058968;28;20038;-59
2021/03/19 02:49:53;;;;;;;18.15;14.18;;;8.70;58.60;;;;;;2060417;28;20022;-60
2021/03/19 02:51:14;;;;;;;17.40;14.80;;;8.70;58.70;;;;;;2063870;28;20094;-60
2021/03/19 02:52:39;;;;;;;20.27;15.50;;;8.70;58.70;;;;;;2065135;28;20061;-60
2021/03/19 02:54:00;;;;;;;16.52;14.63;;;8.70;58.90;;;;;;2065459;28;20061;-60
2021/03/19 02:55:21;;;;;;;17.65;14.57;;;8.70;58.90;;;;;;2065391;28;20089;-60
2021/03/19 02:56:42;;;;;;;19.95;15.75;;;8.70;58.90;;;;;;2066118;28;20709;-60
2021/03/19 02:58:03;;;;;;;20.77;15.88;;;8.70;58.90;;;;;;2062528;28;20470;-60
2021/03/19 02:59:24;;;;;;;18.58;15.23;;;8.70;59.00;;;;;;2069830;28;20037;-60
2021/03/19 03:00:45;;;;;;;16.50;14.60;;;8.70;59.10;;;;;;2067645;28;20509;-60
2021/03/19 03:02:06;;;;;;;20.00;15.13;;;8.70;59.10;;;;;;2072677;28;20034;-61
2021/03/19 03:03:27;;;;;;;15.82;14.10;;;8.70;59.10;;;;;;2049761;28;20047;-59
2021/03/19 03:04:48;;;;;;;14.70;13.15;;;8.70;59.10;;;;;;2062761;28;20042;-60
2021/03/19 03:06:09;;;;;;;14.98;12.10;;;8.70;59.20;;;;;;2069429;28;20034;-59
2021/03/19 03:07:31;;;;;;;13.25;10.57;;;8.70;59.20;;;;;;2063660;28;20135;-59
2021/03/19 03:08:53;;;;;;;11.45;10.05;;;8.70;59.30;;;;;;2066084;28;20030;-60
2021/03/19 03:10:17;;;;;;;10.23;9.23;;;8.70;59.30;;;;;;2067808;28;20453;-61
2021/03/19 03:11:39;;;;;;;11.70;9.25;;;8.70;59.40;;;;;;2058521;28;20027;-59
2021/03/19 03:13:01;;;;;;;13.32;8.65;;;8.70;59.40;;;;;;2063856;28;20474;-60
2021/03/19 03:14:25;;;;;;;9.82;8.82;;;8.70;59.40;;;;;;2068992;28;20029;-59
2021/03/19 03:15:47;;;;;;;10.50;8.70;;;8.70;59.50;;;;;;2067416;28;20119;-60
2021/03/19 03:17:08;;;;;;;8.10;7.35;;;8.70;59.50;;;;;;2064322;28;20050;-60
2021/03/19 03:18:29;;;;;;;8.45;7.45;;;8.70;59.50;;;;;;2064480;28;20023;-61
2021/03/19 03:19:51;;;;;;;8.85;7.95;;;8.70;59.50;;;;;;2065198;28;20060;-59
2021/03/19 03:21:12;;;;;;;7.55;6.95;;;8.70;59.50;;;;;;2070265;28;20084;-61
2021/03/19 03:22:33;;;;;;;9.18;7.82;;;8.70;59.50;;;;;;2053082;28;20509;-59
2021/03/19 03:23:54;;;;;;;8.35;7.40;;;8.70;59.50;;;;;;2053813;28;20574;-59
2021/03/19 03:25:17;;;;;;;7.80;7.10;;;8.60;59.40;;;;;;2065777;28;20056;-60
2021/03/19 03:26:39;;;;;;;8.13;7.32;;;8.60;59.40;;;;;;2066694;28;20031;-60
2021/03/19 03:28:00;;;;;;;9.10;7.65;;;8.60;59.30;;;;;;2071878;28;20112;-60
2021/03/19 03:29:23;;;;;;;8.27;6.90;;;8.60;59.30;;;;;;2069678;28;20038;-60
2021/03/19 03:30:46;;;;;;;8.75;7.00;;;8.60;59.30;;;;;;2063334;28;20079;-59
2021/03/19 03:32:07;;;;;;;9.48;6.72;;;8.60;59.30;;;;;;2069344;28;20034;-61
2021/03/19 03:33:28;;;;;;;8.13;7.32;;;8.60;59.20;;;;;;2069576;28;20030;-60
2021/03/19 03:34:49;;;;;;;9.88;7.22;;;8.50;59.10;;;;;;2063093;28;20049;-61
2021/03/19 03:36:10;;;;;;;7.75;6.82;;;8.50;59.10;;;;;;2064992;28;20038;-60
2021/03/19 03:37:31;;;;;;;7.22;6.53;;;8.50;59.10;;;;;;2060791;28;20034;-60
2021/03/19 03:38:52;;;;;;;8.02;7.00;;;8.50;59.10;;;;;;2065466;28;20359;-61
2021/03/19 03:40:17;;;;;;;8.73;6.85;;;8.50;59.20;;;;;;2068020;28;20100;-60
2021/03/19 03:41:39;;;;;;;8.68;7.78;;;8.40;59.10;;;;;;2062258;28;20030;-60
2021/03/19 03:43:00;;;;;;;8.02;7.25;;;8.40;59.10;;;;;;2072719;28;20048;-59
2021/03/19 03:44:22;;;;;;;9.30;7.45;;;8.40;59.20;;;;;;2069375;28;20034;-60
2021/03/19 03:45:44;;;;;;;7.93;7.13;;;8.40;59.20;;;;;;2059467;28;20038;-60
2021/03/19 03:47:05;;;;;;;8.20;7.38;;;8.40;59.20;;;;;;2062301;28;20038;-60
2021/03/19 03:48:28;;;;;;;8.70;7.53;;;8.30;59.30;;;;;;2059430;28;20042;-59
2021/03/19 03:49:49;;;;;;;9.52;7.65;;;8.30;59.30;;;;;;2063233;28;20036;-60
2021/03/19 03:51:11;;;;;;;8.52;7.72;;;8.30;59.30;;;;;;2071328;28;20092;-60
2021/03/19 03:52:32;;;;;;;10.20;8.50;;;8.30;59.30;;;;;;2063244;28;20040;-60
2021/03/19 03:53:54;;;;;;;9.52;8.35;;;8.30;59.30;;;;;;2066093;28;20358;-59
2021/03/19 03:55:15;;;;;;;10.57;7.70;;;8.30;59.30;;;;;;2065852;28;20034;-59
2021/03/19 03:56:36;;;;;;;9.25;7.95;;;8.30;59.40;;;;;;2064386;28;20037;-59
2021/03/19 03:57:57;;;;;;;9.48;8.57;;;8.30;59.40;;;;;;2062452;28;20041;-59
2021/03/19 03:59:18;;;;;;;10.38;8.15;;;8.30;59.40;;;;;;2063145;28;20019;-60
2021/03/19 04:00:41;;;;;;;10.13;8.13;;;8.20;59.30;;;;;;2059602;28;20642;-59
2021/03/19 04:02:22;;;;;;;11.73;8.48;;;8.20;59.30;;;;;;2058167;28;20030;-61
2021/03/19 04:03:43;;;;;;;9.57;7.57;;;8.20;59.40;;;;;;2062675;28;20101;-61
2021/03/19 04:05:09;;;;;;;9.07;7.55;;;8.20;59.30;;;;;;2064762;28;20566;-61
2021/03/19 04:06:30;;;;;;;11.27;7.88;;;8.20;59.30;;;;;;2055488;28;20094;-61
2021/03/19 04:07:51;;;;;;;10.85;7.13;;;8.20;59.30;;;;;;2064126;28;20062;-60
2021/03/19 04:09:12;;;;;;;8.75;6.88;;;8.20;59.30;;;;;;2067580;28;20418;-60
2021/03/19 04:10:34;;;;;;;9.02;8.13;;;8.20;59.30;;;;;;2060623;28;20033;-60
2021/03/19 04:11:55;;;;;;;8.50;7.55;;;8.20;59.30;;;;;;2067766;28;20109;-60
2021/03/19 04:13:17;;;;;;;7.60;6.80;;;8.20;59.30;;;;;;2063187;28;20041;-60
2021/03/19 04:14:39;;;;;;;8.00;7.10;;;8.20;59.30;;;;;;2058027;28;20078;-61
2021/03/19 04:16:01;;;;;;;8.10;7.20;;;8.10;59.20;;;;;;2067812;28;20037;-61
2021/03/19 04:17:31;;;;;;;7.57;6.75;;;8.20;59.30;;;;;;2064705;28;20418;-60
2021/03/19 04:18:53;;;;;;;7.95;6.82;;;8.10;59.30;;;;;;2064856;28;20408;-60
2021/03/19 04:20:17;;;;;;;8.43;7.10;;;8.10;59.30;;;;;;2065144;28;20042;-60
2021/03/19 04:21:38;;;;;;;10.38;7.13;;;8.10;59.40;;;;;;2063096;28;20124;-60
2021/03/19 04:22:59;;;;;;;8.43;7.03;;;8.10;59.30;;;;;;2065661;28;20030;-60
2021/03/19 04:24:20;;;;;;;7.40;6.70;;;8.10;59.30;;;;;;2063164;28;20127;-60
2021/03/19 04:25:40;;;;;;;10.43;7.05;;;8.10;59.40;;;;;;2059703;28;20369;-60
2021/03/19 04:27:01;;;;;;;9.13;7.22;;;8.10;59.40;;;;;;2069216;28;20096;-61
2021/03/19 04:28:26;;;;;;;7.80;7.05;;;8.10;59.40;;;;;;2070375;28;20045;-60
2021/03/19 04:29:48;;;;;;;7.85;7.05;;;8.10;59.40;;;;;;2062289;28;20022;-60
2021/03/19 04:31:09;;;;;;;10.13;7.60;;;8.10;59.30;;;;;;2063252;28;20031;-61
2021/03/19 04:32:30;;;;;;;8.00;7.20;;;8.10;59.30;;;;;;2063451;28;20026;-61
2021/03/19 04:33:51;;;;;;;9.75;7.65;;;8.10;59.30;;;;;;2067789;28;20092;-60
2021/03/19 04:35:13;;;;;;;9.95;7.30;;;8.10;59.20;;;;;;2066959;28;20489;-60
2021/03/19 04:36:46;;;;;;;11.32;7.95;;;8.10;59.20;;;;;;2063976;28;20046;-61
2021/03/19 04:38:12;;;;;;;10.52;7.80;;;8.10;59.20;;;;;;2061743;28;20034;-61
2021/03/19 04:39:34;;;;;;;9.00;8.05;;;8.10;59.20;;;;;;2063947;28;20108;-59
2021/03/19 04:40:54;;;;;;;8.68;7.78;;;8.10;59.20;;;;;;2069291;28;20031;-60
2021/03/19 04:42:16;;;;;;;9.98;8.65;;;8.10;59.10;;;;;;2064202;28;20026;-61
2021/03/19 04:43:37;;;;;;;10.52;8.60;;;8.10;59.20;;;;;;2064615;28;20049;-60
2021/03/19 04:44:59;;;;;;;10.60;8.27;;;8.10;59.20;;;;;;2065629;28;20027;-60
2021/03/19 04:46:20;;;;;;;9.07;8.00;;;8.10;59.20;;;;;;2062518;28;20042;-60
2021/03/19 04:47:41;;;;;;;11.65;8.63;;;8.10;59.20;;;;;;2063635;28;20029;-61
2021/03/19 04:49:03;;;;;;;12.80;8.73;;;8.10;59.20;;;;;;2062515;28;20058;-61
2021/03/19 04:50:24;;;;;;;11.18;9.02;;;8.10;59.20;;;;;;2065125;28;20112;-61
2021/03/19 04:51:45;;;;;;;11.25;8.63;;;8.10;59.20;;;;;;2061676;28;20077;-60
2021/03/19 04:53:06;;;;;;;10.82;8.68;;;8.10;59.30;;;;;;2064797;28;20504;-60
2021/03/19 04:54:28;;;;;;;11.35;8.43;;;8.10;59.30;;;;;;2063151;28;20042;-60
2021/03/19 04:55:50;;;;;;;9.38;8.45;;;8.10;59.30;;;;;;2065712;28;20037;-58
2021/03/19 04:57:11;;;;;;;10.98;8.73;;;8.10;59.30;;;;;;2069053;28;20070;-61
2021/03/19 04:58:32;;;;;;;10.93;9.02;;;8.10;59.20;;;;;;2064685;28;20266;-62
2021/03/19 04:59:53;;;;;;;12.55;8.35;;;8.10;59.10;;;;;;2064184;28;20060;-61
2021/03/19 05:01:14;;;;;;;12.68;9.30;;;8.10;59.00;;;;;;2064059;28;20118;-60
2021/03/19 05:02:38;;;;;;;9.55;8.55;;;8.10;59.30;;;;;;2062353;28;20034;-61
2021/03/19 05:03:59;;;;;;;9.73;8.35;;;8.00;58.70;;;;;;2068966;28;20042;-61
2021/03/19 05:05:25;;;;;;;10.05;8.68;;;8.00;58.60;;;;;;2064330;28;20030;-58
2021/03/19 05:06:47;;;;;;;10.63;8.50;;;8.00;58.60;;;;;;2066771;28;20039;-61
2021/03/19 05:08:08;;;;;;;11.75;8.30;;;8.00;58.50;;;;;;2068945;28;20067;-61
2021/03/19 05:09:30;;;;;;;10.63;8.00;;;7.90;58.40;;;;;;2064173;28;20069;-61
2021/03/19 05:10:50;;;;;;;11.68;9.05;;;7.90;58.40;;;;;;2069937;28;20032;-62
2021/03/19 05:12:11;;;;;;;9.65;8.65;;;7.90;58.50;;;;;;2065153;28;20026;-61
2021/03/19 05:13:32;;;;;;;9.18;7.90;;;7.90;58.60;;;;;;2063751;28;20034;-61
2021/03/19 05:14:53;;;;;;;11.55;8.68;;;7.80;58.60;;;;;;2068473;28;20044;-61
2021/03/19 05:16:14;;;;;;;11.95;8.05;;;7.80;58.70;;;;;;2069248;28;20060;-61
2021/03/19 05:17:36;;;;;;;9.60;8.35;;;7.80;58.70;;;;;;2064675;28;20115;-61
2021/03/19 05:18:57;;;;;;;9.43;8.40;;;7.80;58.80;;;;;;2070547;28;20038;-61
2021/03/19 05:20:18;;;;;;;10.55;8.38;;;7.80;58.90;;;;;;2065407;28;20049;-60
2021/03/19 05:21:39;;;;;;;9.35;8.32;;;7.70;58.90;;;;;;2060433;28;20038;-61
2021/03/19 05:23:00;;;;;;;10.90;8.02;;;7.70;58.90;;;;;;2061242;28;20470;-58
2021/03/19 05:24:21;;;;;;;9.73;7.72;;;7.70;58.90;;;;;;2062648;28;20525;-59
2021/03/19 05:25:42;;;;;;;10.95;8.07;;;7.70;58.80;;;;;;2063489;28;20458;-60
2021/03/19 05:27:03;;;;;;;10.10;8.82;;;7.60;58.70;;;;;;2063656;28;20346;-62
2021/03/19 05:28:25;;;;;;;11.10;8.48;;;7.60;58.70;;;;;;2063499;28;20038;-61
2021/03/19 05:29:46;;;;;;;8.70;7.85;;;7.60;58.70;;;;;;2065207;28;20053;-60
2021/03/19 05:31:07;;;;;;;10.77;8.60;;;7.60;58.70;;;;;;2065394;28;20026;-61
2021/03/19 05:32:28;;;;;;;8.52;7.63;;;7.60;58.70;;;;;;2064551;28;20113;-61
2021/03/19 05:33:53;;;;;;;11.52;8.80;;;7.60;58.70;;;;;;2063248;28;20085;-59
2021/03/19 05:35:15;;;;;;;9.10;8.10;;;7.50;58.70;;;;;;2065377;28;20030;-59
2021/03/19 05:36:36;;;;;;;9.75;8.00;;;7.50;58.70;;;;;;2063667;28;20358;-61
2021/03/19 05:37:57;;;;;;;12.40;9.00;;;7.50;58.70;;;;;;2067002;28;20073;-60
2021/03/19 05:39:18;;;;;;;10.07;8.10;;;7.50;58.80;;;;;;2060734;28;20043;-60
2021/03/19 05:40:47;;;;;;;13.25;8.43;;;7.40;58.80;;;;;;2062483;28;20074;-61
2021/03/19 05:42:31;;;;;;;10.88;8.48;;;7.40;58.90;;;;;;2059773;28;20362;-60
2021/03/19 05:44:05;;;;;;;10.73;8.05;;;7.40;59.00;;;;;;2054758;28;20046;-61
2021/03/19 05:45:29;;;;;;;11.20;8.40;;;7.40;58.90;;;;;;2059060;28;20089;-60
2021/03/19 05:47:00;;;;;;;11.00;8.93;;;7.30;58.80;;;;;;2065088;28;20045;-61
2021/03/19 05:48:23;;;;;;;10.57;8.60;;;7.30;58.90;;;;;;2070325;28;20065;-61
2021/03/19 05:49:44;;;;;;;9.07;8.13;;;7.30;58.80;;;;;;2062478;28;20045;-61
2021/03/19 05:51:15;;;;;;;7.90;7.13;;;7.30;58.90;;;;;;2063750;28;20042;-61
2021/03/19 05:52:36;;;;;;;10.80;8.70;;;7.30;58.90;;;;;;2062469;28;20048;-61
2021/03/19 05:54:09;;;;;;;9.18;8.23;;;7.30;59.00;;;;;;2062989;28;20037;-60
2021/03/19 05:55:37;;;;;;;9.55;8.27;;;7.20;58.90;;;;;;2064238;28;20301;-61
2021/03/19 05:57:20;;;;;;;10.35;8.32;;;7.20;59.00;;;;;;2068107;28;20714;-61
2021/03/19 05:58:42;;;;;;;8.80;7.90;;;7.20;59.10;;;;;;2072639;28;20057;-60
2021/03/19 06:00:06;;;;;;;9.85;8.35;;;7.20;59.00;;;;;;2068105;28;20026;-60
2021/03/19 06:01:27;;;;;;;11.13;8.35;;;7.20;59.00;;;;;;2060506;28;20030;-60
2021/03/19 06:02:48;;;;;;;11.40;8.35;;;7.20;58.90;;;;;;2066635;28;20046;-61
2021/03/19 06:04:19;;;;;;;9.90;8.30;;;7.20;59.00;;;;;;2066332;28;20061;-62
2021/03/19 06:06:00;;;;;;;9.88;8.57;;;7.10;59.00;;;;;;2063679;28;20026;-61
2021/03/19 06:07:38;;;;;;;10.18;8.10;;;7.10;59.10;;;;;;2070249;28;20045;-60
2021/03/19 06:08:59;;;;;;;10.68;8.35;;;7.10;59.20;;;;;;2063955;28;20110;-60
2021/03/19 06:10:41;;;;;;;9.48;8.18;;;7.10;59.00;;;;;;2063156;28;20026;-60
2021/03/19 06:12:06;;;;;;;11.40;8.55;;;7.10;59.20;;;;;;2062855;28;20461;-61
2021/03/19 06:13:52;;;;;;;11.13;8.45;;;7.10;59.10;;;;;;2055971;28;20398;-61
2021/03/19 06:15:42;;;;;;;10.88;8.32;;;7.10;59.00;;;;;;2069782;28;20141;-61
2021/03/19 06:17:24;;;;;;;8.38;7.57;;;7.00;59.00;;;;;;2065524;28;20125;-60
2021/03/19 06:18:49;;;;;;;11.10;8.65;;;7.00;59.10;;;;;;2058977;28;20401;-60
2021/03/19 06:20:14;;;;;;;10.07;7.97;;;7.10;59.00;;;;;;2068184;28;20030;-60
2021/03/19 06:21:36;;;;;;;11.38;8.27;;;7.00;59.40;;;;;;2063366;28;20026;-60
2021/03/19 06:23:01;;;;;;;9.10;8.27;;;7.00;59.00;;;;;;2066211;28;20049;-60
2021/03/19 06:24:25;;;;;;;10.13;9.13;;;7.00;59.50;;;;;;2071096;28;20038;-60
2021/03/19 06:26:02;;;;;;;11.02;8.90;;;7.00;59.00;;;;;;2063784;28;20402;-61
2021/03/19 06:27:29;;;;;;;8.80;7.78;;;7.00;59.10;;;;;;2065044;28;20100;-60
2021/03/19 06:29:06;;;;;;;12.48;8.50;;;6.90;59.00;;;;;;2071404;28;20393;-60
2021/03/19 06:30:33;;;;;;;10.02;8.10;;;6.90;59.10;;;;;;2065151;28;20045;-61
2021/03/19 06:32:24;;;;;;;10.32;8.15;;;6.90;59.10;;;;;;2063320;28;20038;-61
2021/03/19 06:33:46;;;;;;;9.88;8.27;;;6.90;59.20;;;;;;2060679;28;20122;-61
2021/03/19 06:35:10;;;;;;;9.68;8.57;;;6.90;59.10;;;;;;2061865;28;20465;-61
2021/03/19 06:36:32;;;;;;;10.57;9.13;;;6.90;59.10;;;;;;2057266;28;20039;-61
2021/03/19 06:37:53;;;;;;;8.65;7.65;;;6.90;59.10;;;;;;2070953;28;20059;-60
2021/03/19 06:39:26;;;;;;;9.32;8.38;;;6.90;59.20;;;;;;2065490;28;20030;-60
2021/03/19 06:40:47;;;;;;;11.68;8.35;;;6.90;59.20;;;;;;2060061;28;20034;-60
2021/03/19 06:42:34;;;;;;;8.75;7.88;;;6.90;59.20;;;;;;2068643;28;20072;-60
2021/03/19 06:44:12;;;;;;;9.40;7.72;;;6.80;59.20;;;;;;2067099;28;20073;-60
2021/03/19 06:45:33;;;;;;;9.18;8.10;;;6.90;59.20;;;;;;2059050;28;20067;-60
2021/03/19 06:47:00;;;;;;;9.65;7.85;;;6.90;59.20;;;;;;2068063;28;20045;-60
2021/03/19 06:48:31;;;;;;;8.20;7.40;;;6.90;59.20;;;;;;2071784;28;20045;-60
2021/03/19 06:49:54;;;;;;;8.93;8.02;;;6.90;59.30;;;;;;2071994;28;20033;-60
2021/03/19 06:51:24;;;;;;;9.07;8.23;;;6.80;59.20;;;;;;2062219;28;20031;-60
2021/03/19 06:52:45;;;;;;;9.02;7.32;;;6.80;59.20;;;;;;2062440;28;20115;-60
2021/03/19 06:54:13;;;;;;;9.15;8.00;;;6.90;59.20;;;;;;2069032;28;20532;-60
2021/03/19 06:55:41;;;;;;;10.27;7.53;;;6.80;59.20;;;;;;2061582;28;20030;-61
2021/03/19 06:57:12;;;;;;;10.98;7.78;;;6.90;59.20;;;;;;2069281;28;20124;-60
2021/03/19 06:58:45;;;;;;;9.27;7.47;;;6.80;59.20;;;;;;2057337;28;20035;-61
2021/03/19 07:00:08;;;;;;;8.65;7.75;;;6.90;59.20;;;;;;2069445;28;20061;-61
2021/03/19 07:01:38;;;;;;;9.07;8.02;;;6.90;59.20;;;;;;2064429;28;20030;-60
2021/03/19 07:02:59;;;;;;;;;;;6.90;59.30;;;;;;2061993;28;20113;-60
2021/03/19 07:04:50;;;;;;;7.97;7.15;;;6.90;59.40;;;;;;2066303;28;20292;-61
2021/03/19 07:06:59;;;;;;;8.98;6.75;;;6.90;59.20;;;;;;2064503;28;20034;-61
2021/03/19 07:08:45;;;;;;;7.97;6.65;;;6.90;59.30;;;;;;2049463;28;20032;-61
2021/03/19 07:10:26;;;;;;;8.00;7.07;;;6.90;59.20;;;;;;2053874;28;20077;-60
2021/03/19 07:12:05;;;;;;;8.02;6.85;;;6.90;59.10;;;;;;2051700;28;20070;-61
2021/03/19 07:13:57;;;;;;;8.07;6.53;;;6.90;59.20;;;;;;2055461;28;20457;-61
2021/03/19 07:15:35;;;;;;;7.72;6.50;;;7.00;59.30;;;;;;2066072;28;20409;-61
2021/03/19 07:17:19;;;;;;;8.38;6.93;;;7.00;59.20;;;;;;2065839;28;20030;-60
2021/03/19 07:19:07;;;;;;;9.48;6.70;;;7.00;59.10;;;;;;2063919;28;20117;-60
2021/03/19 07:20:56;;;;;;;7.43;6.72;;;7.00;59.10;;;;;;2064400;28;20352;-60
2021/03/19 07:22:39;;;;;;;8.93;8.02;;;7.00;59.00;;;;;;2071845;28;20042;-60
2021/03/19 07:24:14;;;;;;;8.20;7.30;;;7.10;59.00;;;;;;2068695;28;20026;-60
2021/03/19 07:25:55;;;;;;;7.95;7.13;;;7.10;58.90;;;;;;2067079;28;20100;-60
2021/03/19 07:27:15;;;;;;;9.73;7.13;;;7.10;59.00;;;;;;2071446;28;20041;-60
2021/03/19 07:29:14;;;;;;;8.88;6.80;;;7.10;59.10;;;;;;2065448;28;20022;-61
2021/03/19 07:30:42;;;;;;;9.35;7.30;;;7.10;59.00;;;;;;2068244;28;20034;-61
2021/03/19 07:32:30;;;;;;;8.73;7.57;;;7.10;59.10;;;;;;2066600;28;20038;-60
2021/03/19 07:33:54;;;;;;;9.30;7.50;;;7.10;59.10;;;;;;2066570;28;20446;-61
2021/03/19 07:35:39;;;;;;;9.80;7.60;;;7.10;59.10;;;;;;2068261;28;20120;-60